Terminal Aerodrome Forecast
Issued by NWS

Home | Current Version | Previous Version | Text Only | Print | Product List | Glossary On
Versions: 1 2 3 4 5 6 7 8 9 10 11 12 13 14 15 16 17 18 19 20 21 22 23 24 25 26 27 28
588
FTUS43 KPAH 292320
TAFCGI
TAF
KCGI 292320Z 3000/3024 25005KT P6SM VCTS SCT025CB OVC050
      TEMPO 3000/3002 VRB15G30KT 2SM TSRA BR OVC015CB
     FM300200 VRB04KT P6SM SCT030 BKN100
     FM300600 00000KT 3SM BR SCT080
      TEMPO 3008/3012 1SM BR BCFG BKN005
     FM301500 29003KT P6SM BKN015
     FM301800 27006KT P6SM SCT030=

USA.gov is the U.S. government's official web portal to all federal, state and local government web resources and services.